Terminal Aerodrome Forecast
Issued by NWS Newport/Morehead City, NC

Home | Current Version | Previous Version | Graphics & Text | Print | Product List | Glossary On
Versions: 1 2 3 4 5 6 7 8 9 10 11 12 13 14 15 16 17 18 19
000
FTUS42 KMHX 290520
TAFEWN
TAF
KEWN 290520Z 2906/3006 08002KT P6SM BKN250
     FM290800 00000KT 4SM BR SCT200
     FM291200 12008KT P6SM SCT060
     FM300100 10004KT P6SM SCT250=

USA.gov is the U.S. government's official web portal to all federal, state and local government web resources and services.